createdAt,value
2023-11-01T00:02:21.927Z,99882.78
2023-11-01T00:04:48.893Z,99876.66
2023-11-01T00:07:16.659Z,99881.19
2023-11-01T00:09:43.616Z,99889.22
2023-11-01T00:12:10.985Z,99876.19
2023-11-01T00:14:37.979Z,99880.41
2023-11-01T00:17:05.327Z,99866.66
2023-11-01T00:19:32.561Z,99884.06
2023-11-01T00:21:59.727Z,99888.56
2023-11-01T00:24:26.891Z,99897.19
2023-11-01T00:26:54.178Z,99895.44
2023-11-01T00:29:21.496Z,99893.81
2023-11-01T00:31:48.664Z,99901.78
2023-11-01T00:34:16.047Z,99898.44
2023-11-01T00:36:42.930Z,99888.03
2023-11-01T00:39:10.122Z,99902.87
2023-11-01T00:41:37.335Z,99909.16
2023-11-01T00:44:04.793Z,99909.22
2023-11-01T00:46:31.992Z,99904.06
2023-11-01T00:48:59.207Z,99908.47
2023-11-01T00:51:26.374Z,99910.19
2023-11-01T00:53:53.330Z,99912.75
2023-11-01T00:56:20.579Z,99914.47
2023-11-01T00:58:47.912Z,99908.31
2023-11-01T01:01:15.138Z,99919.91
2023-11-01T01:03:42.523Z,99913.75
2023-11-01T01:06:09.737Z,99923.44
2023-11-01T01:08:37.064Z,99874.59
2023-11-01T01:11:04.519Z,99922.50
2023-11-01T01:13:31.686Z,99925.19
2023-11-01T01:15:58.946Z,99926.00
2023-11-01T01:18:26.150Z,99925.19
2023-11-01T01:20:53.176Z,99927.03
2023-11-01T01:23:20.343Z,99921.81
2023-11-01T01:25:47.583Z,99931.47
2023-11-01T01:28:14.476Z,99926.97
2023-11-01T01:30:41.595Z,99930.47
2023-11-01T01:33:08.901Z,99929.44
2023-11-01T01:35:35.861Z,99930.81
2023-11-01T01:38:03.011Z,99930.34
2023-11-01T01:40:30.528Z,99928.19
2023-11-01T01:43:19.301Z,99936.47
2023-11-01T01:45:49.086Z,99923.19
2023-11-01T01:48:16.333Z,99945.13
2023-11-01T01:50:43.604Z,99923.84
2023-11-01T01:53:10.838Z,99936.84
2023-11-01T01:55:37.975Z,99912.00
2023-11-01T01:58:05.144Z,99945.34
2023-11-01T02:00:33.504Z,99938.63
2023-11-01T02:03:01.839Z,99927.66
2023-11-01T02:05:29.193Z,99914.78
2023-11-01T02:07:56.390Z,99947.19
2023-11-01T02:10:24.342Z,99946.50
2023-11-01T02:12:53.095Z,99957.16
2023-11-01T02:15:19.916Z,99952.84
2023-11-01T02:17:46.951Z,99955.47
2023-11-01T02:20:15.312Z,99952.84
2023-11-01T02:22:43.614Z,99963.44
2023-11-01T02:25:10.957Z,99962.72
2023-11-01T02:27:37.988Z,99965.41
2023-11-01T02:30:06.380Z,99965.44
2023-11-01T02:32:33.453Z,99968.78
2023-11-01T02:35:01.469Z,99956.63
2023-11-01T02:37:30.563Z,99978.28
2023-11-01T02:39:57.827Z,99943.41
2023-11-01T02:42:24.767Z,99990.38
2023-11-01T02:44:51.960Z,99988.97
2023-11-01T02:47:19.128Z,99993.09
2023-11-01T02:49:46.503Z,100001.91
2023-11-01T02:52:13.408Z,100004.00
2023-11-01T02:54:40.618Z,99997.28
2023-11-01T02:57:07.601Z,99996.03
2023-11-01T02:59:34.929Z,100003.13
2023-11-01T03:02:02.086Z,100004.91
2023-11-01T03:04:28.926Z,100007.16
2023-11-01T03:06:56.123Z,100003.31
2023-11-01T03:09:23.288Z,100004.91
2023-11-01T03:11:50.486Z,100002.22
2023-11-01T03:14:17.669Z,100009.47
2023-11-01T03:16:44.874Z,100011.38
2023-11-01T03:19:12.116Z,100002.50
2023-11-01T03:21:42.655Z,100017.59
2023-11-01T03:24:09.766Z,99992.13
2023-11-01T03:26:36.919Z,100011.25
2023-11-01T03:29:04.085Z,100010.28
2023-11-01T03:31:31.319Z,100012.06
2023-11-01T03:33:58.655Z,99994.63
2023-11-01T03:36:25.717Z,100026.25
2023-11-01T03:38:52.591Z,100035.84
2023-11-01T03:41:19.706Z,100039.38
2023-11-01T03:43:46.849Z,100057.03
2023-11-01T03:46:14.189Z,100052.72
2023-11-01T03:48:41.574Z,100056.31
2023-11-01T03:51:08.527Z,100037.09
2023-11-01T03:53:35.856Z,100062.47
2023-11-01T03:56:04.677Z,100068.03
2023-11-01T03:58:32.031Z,100067.28
2023-11-01T04:00:59.138Z,100041.09
2023-11-01T04:03:27.746Z,100065.69
2023-11-01T04:05:56.129Z,100056.19
2023-11-01T04:08:23.773Z,100067.53
2023-11-01T04:10:50.653Z,100071.25
2023-11-01T04:13:18.045Z,100057.66
2023-11-01T04:15:45.218Z,100064.66
2023-11-01T04:18:12.489Z,100070.78
2023-11-01T04:20:39.859Z,100077.09
2023-11-01T04:23:07.018Z,100077.81
2023-11-01T04:25:34.224Z,100071.09
2023-11-01T04:28:01.334Z,100081.16
2023-11-01T04:30:28.334Z,100073.16
2023-11-01T04:32:55.590Z,100089.06
2023-11-01T04:35:22.841Z,100094.66
2023-11-01T04:37:50.078Z,100089.47
2023-11-01T04:40:17.230Z,100100.06
2023-11-01T04:42:45.916Z,100099.41
2023-11-01T04:45:13.464Z,100100.41
2023-11-01T04:47:42.680Z,100073.41
2023-11-01T04:50:10.900Z,100100.78
2023-11-01T04:52:39.264Z,100096.62
2023-11-01T04:55:09.427Z,100109.13
2023-11-01T04:57:36.844Z,100094.50
2023-11-01T05:00:12.828Z,100097.22
2023-11-01T05:02:40.343Z,100109.75
2023-11-01T05:05:09.565Z,100106.38
2023-11-01T05:07:37.487Z,100095.97
2023-11-01T05:10:05.092Z,100093.47
2023-11-01T05:12:32.437Z,100092.72
2023-11-01T05:14:59.727Z,100111.28
2023-11-01T05:17:26.727Z,100080.78
2023-11-01T05:19:54.276Z,100111.50
2023-11-01T05:22:21.392Z,100116.84
2023-11-01T05:24:50.416Z,100122.28
2023-11-01T05:27:18.567Z,100108.34
2023-11-01T05:29:46.414Z,100117.09
2023-11-01T05:32:13.854Z,100092.53
2023-11-01T05:34:41.870Z,100122.37
2023-11-01T05:37:12.572Z,100125.06
2023-11-01T05:39:41.860Z,100129.47
2023-11-01T05:42:09.966Z,100118.06
2023-11-01T05:44:37.129Z,100130.34
2023-11-01T05:47:05.052Z,100147.88
2023-11-01T05:49:32.877Z,100149.63
2023-11-01T05:52:00.127Z,100164.53
2023-11-01T05:54:27.856Z,100152.22
2023-11-01T05:56:55.722Z,100159.22
2023-11-01T05:59:22.888Z,100161.94
2023-11-01T06:01:50.320Z,100162.75
2023-11-01T06:04:17.525Z,100180.28
2023-11-01T06:06:44.803Z,100185.59
2023-11-01T06:09:18.047Z,100186.41
2023-11-01T06:11:45.294Z,100171.53
2023-11-01T06:14:12.606Z,100197.75
2023-11-01T06:16:39.939Z,100169.53
2023-11-01T06:19:07.390Z,100188.69
2023-11-01T06:21:34.530Z,100180.72
2023-11-01T06:24:02.946Z,100195.66
2023-11-01T06:26:29.957Z,100195.59
2023-11-01T06:28:57.131Z,100202.59
2023-11-01T06:31:24.518Z,100192.03
2023-11-01T06:33:51.712Z,100198.03
2023-11-01T06:36:19.194Z,100179.56
2023-11-01T06:38:46.450Z,100199.56
2023-11-01T06:41:13.607Z,100196.81
2023-11-01T06:43:40.582Z,100194.84
2023-11-01T06:46:07.741Z,100191.97
2023-11-01T06:48:34.727Z,100191.84
2023-11-01T06:51:02.136Z,100195.28
2023-11-01T06:53:29.381Z,100172.50
2023-11-01T06:55:56.669Z,100194.97
2023-11-01T06:58:23.891Z,100199.22
2023-11-01T07:00:51.120Z,100193.78
2023-11-01T07:03:18.459Z,100191.69
2023-11-01T07:05:45.871Z,100187.88
2023-11-01T07:08:12.739Z,100183.97
2023-11-01T07:10:39.944Z,100188.06
2023-11-01T07:13:08.052Z,100172.66
2023-11-01T07:15:35.269Z,100171.31
2023-11-01T07:18:02.768Z,100191.91
2023-11-01T07:20:30.130Z,100174.25
2023-11-01T07:22:57.110Z,100171.16
2023-11-01T07:25:24.306Z,100184.75
2023-11-01T07:27:51.456Z,100180.53
2023-11-01T07:30:18.613Z,100178.75
2023-11-01T07:32:46.314Z,100187.62
2023-11-01T07:35:13.727Z,100173.44
2023-11-01T07:37:41.051Z,100175.72
2023-11-01T07:40:10.636Z,100167.38
2023-11-01T07:42:39.506Z,100180.09
2023-11-01T07:45:07.453Z,100180.88
2023-11-01T07:47:35.727Z,100179.87
2023-11-01T07:50:05.567Z,100189.72
2023-11-01T07:52:32.714Z,100187.97
2023-11-01T07:54:59.753Z,100185.63
2023-11-01T07:57:26.616Z,100190.31
2023-11-01T07:59:54.408Z,100183.16
2023-11-01T08:02:21.357Z,100176.84
2023-11-01T08:04:48.356Z,100188.63
2023-11-01T08:07:16.546Z,100190.78
2023-11-01T08:09:43.558Z,100200.72
2023-11-01T08:12:10.487Z,100202.47
2023-11-01T08:14:37.768Z,100197.66
2023-11-01T08:17:05.295Z,100197.91
2023-11-01T08:19:32.182Z,100203.72
2023-11-01T08:21:59.042Z,100188.97
2023-11-01T08:24:26.250Z,100180.09
2023-11-01T08:26:53.375Z,100176.34
2023-11-01T08:29:20.389Z,100140.03
2023-11-01T08:31:47.382Z,100182.50
2023-11-01T08:34:14.840Z,100184.13
2023-11-01T08:36:41.819Z,100182.13
2023-11-01T08:39:08.901Z,100181.66
2023-11-01T08:41:36.146Z,100191.75
2023-11-01T08:44:03.165Z,100187.31
2023-11-01T08:46:30.553Z,100177.59
2023-11-01T08:48:57.815Z,100188.03
2023-11-01T08:51:26.707Z,100189.94
2023-11-01T08:53:53.701Z,100192.78
2023-11-01T08:56:20.969Z,100181.91
2023-11-01T08:58:48.470Z,100192.25
2023-11-01T09:01:15.662Z,100186.44
2023-11-01T09:03:43.117Z,100209.53
2023-11-01T09:06:10.421Z,100207.06
2023-11-01T09:08:38.055Z,100206.69
2023-11-01T09:11:05.648Z,100215.75
2023-11-01T09:13:33.058Z,100217.53
2023-11-01T09:16:00.678Z,100222.06
2023-11-01T09:18:27.740Z,100198.41
2023-11-01T09:20:54.755Z,100203.06
2023-11-01T09:23:21.788Z,100217.56
2023-11-01T09:25:48.968Z,100213.25
2023-11-01T09:28:16.061Z,100220.50
2023-11-01T09:30:43.237Z,100218.97
2023-11-01T09:33:10.548Z,100225.16
2023-11-01T09:35:37.938Z,100202.06
2023-11-01T09:38:04.886Z,100221.72
2023-11-01T09:40:31.840Z,100218.78
2023-11-01T09:42:59.142Z,100235.81
2023-11-01T09:45:27.063Z,100221.69
2023-11-01T09:47:54.383Z,100244.78
2023-11-01T09:50:21.462Z,100220.72
2023-11-01T09:52:48.746Z,100246.81
2023-11-01T09:55:17.001Z,100241.31
2023-11-01T09:57:45.898Z,100243.31
2023-11-01T10:00:13.537Z,100242.88
2023-11-01T10:02:40.598Z,100245.59
2023-11-01T10:05:07.853Z,100240.59
2023-11-01T10:07:35.091Z,100239.81
2023-11-01T10:10:05.976Z,100234.03
2023-11-01T10:12:33.030Z,100236.94
2023-11-01T10:15:02.515Z,100204.31
2023-11-01T10:17:29.857Z,100227.75
2023-11-01T10:19:57.207Z,100225.12
2023-11-01T10:22:24.844Z,100204.00
2023-11-01T10:24:52.213Z,100194.56
2023-11-01T10:27:19.117Z,100215.59
2023-11-01T10:29:48.684Z,100230.69
2023-11-01T10:32:16.201Z,100225.78
2023-11-01T10:34:43.281Z,100218.31
2023-11-01T10:37:10.688Z,100226.41
2023-11-01T10:39:41.428Z,100216.94
2023-11-01T10:42:10.887Z,100212.06
2023-11-01T10:44:39.677Z,100220.66
2023-11-01T10:47:08.591Z,100215.41
2023-11-01T10:49:37.046Z,100222.56
2023-11-01T10:52:05.153Z,100215.19
2023-11-01T10:54:33.574Z,100201.31
2023-11-01T10:57:01.078Z,100208.25
2023-11-01T10:59:53.782Z,100201.62
2023-11-01T11:02:31.373Z,100193.97
2023-11-01T11:05:07.394Z,100190.22
2023-11-01T11:07:55.277Z,100180.91
2023-11-01T11:10:30.907Z,100174.62
2023-11-01T11:13:09.935Z,100191.91
2023-11-01T11:15:52.332Z,100175.03
2023-11-01T11:18:23.313Z,100169.16
2023-11-01T11:20:54.789Z,100157.84
2023-11-01T11:23:32.611Z,100167.50
2023-11-01T11:26:01.566Z,100161.44
2023-11-01T11:28:39.347Z,100164.19
2023-11-01T11:31:08.742Z,100156.28
2023-11-01T11:33:45.380Z,100150.59
2023-11-01T11:36:17.369Z,100154.94
2023-11-01T11:38:57.800Z,100134.94
2023-11-01T11:41:30.096Z,100147.38
2023-11-01T11:44:03.796Z,100148.03
2023-11-01T11:46:47.357Z,100141.09
2023-11-01T11:49:29.919Z,100133.69
2023-11-01T11:52:14.966Z,100147.50
2023-11-01T11:54:42.211Z,100149.81
2023-11-01T11:57:14.659Z,100148.03
2023-11-01T11:59:43.619Z,100148.41
2023-11-01T12:02:18.876Z,100141.84
2023-11-01T12:04:46.641Z,100136.97
2023-11-01T12:07:21.734Z,100138.59
2023-11-01T12:09:49.943Z,100114.81
2023-11-01T12:12:16.987Z,100129.19
2023-11-01T12:14:54.524Z,100130.19
2023-11-01T12:17:22.017Z,100121.31
2023-11-01T12:19:48.934Z,100113.91
2023-11-01T12:22:16.871Z,100112.16
2023-11-01T12:24:47.707Z,100111.94
2023-11-01T12:27:16.505Z,100115.31
2023-11-01T12:29:50.890Z,100097.00
2023-11-01T12:32:29.698Z,100101.22
2023-11-01T12:34:56.621Z,100100.53
2023-11-01T12:37:29.694Z,100094.78
2023-11-01T12:40:11.716Z,100092.91
2023-11-01T12:43:08.583Z,100095.63
2023-11-01T12:45:35.600Z,100082.91
2023-11-01T12:48:02.883Z,100088.37
2023-11-01T12:50:31.329Z,100081.53
2023-11-01T12:52:59.075Z,100071.91
2023-11-01T12:55:27.813Z,100083.06
2023-11-01T12:57:56.456Z,100076.06
2023-11-01T13:00:29.106Z,100069.50
2023-11-01T13:02:58.350Z,100052.62
2023-11-01T13:05:25.582Z,100070.66
2023-11-01T13:07:58.045Z,100057.44
2023-11-01T13:10:26.109Z,100045.09
2023-11-01T13:12:53.753Z,100057.69
2023-11-01T13:15:21.685Z,100065.62
2023-11-01T13:17:50.035Z,100045.09
2023-11-01T13:20:17.303Z,100051.31
2023-11-01T13:22:48.831Z,100054.81
2023-11-01T13:25:16.281Z,100053.91
2023-11-01T13:27:43.572Z,100056.56
2023-11-01T13:30:11.134Z,100051.28
2023-11-01T13:32:38.169Z,100049.00
2023-11-01T13:35:05.798Z,100045.88
2023-11-01T13:37:33.283Z,100047.78
2023-11-01T13:40:00.534Z,100038.38
2023-11-01T13:42:27.504Z,100035.47
2023-11-01T13:44:54.687Z,100035.97
2023-11-01T13:47:25.372Z,100024.75
2023-11-01T13:49:53.113Z,100035.56
2023-11-01T13:52:20.097Z,100027.59
2023-11-01T13:54:47.284Z,100030.31
2023-11-01T13:57:15.442Z,100025.38
2023-11-01T13:59:42.344Z,100032.44
2023-11-01T14:02:09.611Z,100024.78
2023-11-01T14:04:36.666Z,100021.31
2023-11-01T14:07:03.988Z,100020.00
2023-11-01T14:09:31.088Z,100012.78
2023-11-01T14:11:58.146Z,99996.72
2023-11-01T14:14:25.381Z,100021.56
2023-11-01T14:16:52.727Z,100030.75
2023-11-01T14:19:20.046Z,100013.81
2023-11-01T14:21:47.153Z,100019.47
2023-11-01T14:24:17.225Z,100005.69
2023-11-01T14:26:46.597Z,100008.25
2023-11-01T14:29:13.776Z,100012.50
2023-11-01T14:31:41.075Z,100013.00
2023-11-01T14:34:08.503Z,100001.81
2023-11-01T14:36:35.906Z,99994.16
2023-11-01T14:39:04.287Z,100009.47
2023-11-01T14:41:32.193Z,100011.91
2023-11-01T14:44:00.874Z,100007.03
2023-11-01T14:46:28.841Z,100014.56
2023-11-01T14:48:56.317Z,100007.16
2023-11-01T14:51:23.284Z,100003.59
2023-11-01T14:53:50.263Z,100006.47
2023-11-01T14:56:18.535Z,100006.72
2023-11-01T14:58:48.493Z,99995.06
2023-11-01T15:01:16.619Z,99994.56
2023-11-01T15:03:45.641Z,99994.94
2023-11-01T15:06:13.412Z,99976.00
2023-11-01T15:08:40.946Z,99994.34
2023-11-01T15:11:10.627Z,99989.12
2023-11-01T15:13:37.943Z,99989.59
2023-11-01T15:16:05.754Z,99991.06
2023-11-01T15:18:32.787Z,99964.38
2023-11-01T15:21:00.096Z,99995.81
2023-11-01T15:23:27.349Z,99988.56
2023-11-01T15:25:54.262Z,99979.41
2023-11-01T15:28:21.465Z,99990.66
2023-11-01T15:30:48.496Z,99979.16
2023-11-01T15:33:15.905Z,99978.09
2023-11-01T15:35:43.881Z,99986.56
2023-11-01T15:38:11.114Z,99982.31
2023-11-01T15:40:38.030Z,99972.91
2023-11-01T15:43:04.968Z,99990.12
2023-11-01T15:45:32.248Z,99986.78
2023-11-01T15:47:59.491Z,99973.88
2023-11-01T15:50:26.760Z,99980.28
2023-11-01T15:52:54.317Z,99969.63
2023-11-01T15:55:21.925Z,99968.84
2023-11-01T15:57:50.097Z,99970.94
2023-11-01T16:00:18.273Z,99952.06
2023-11-01T16:02:46.488Z,99981.72
2023-11-01T16:05:14.398Z,99977.44
2023-11-01T16:07:43.114Z,99974.03
2023-11-01T16:10:11.662Z,99971.69
2023-11-01T16:12:39.036Z,99974.62
2023-11-01T16:15:06.734Z,99973.22
2023-11-01T16:17:33.925Z,99972.47
2023-11-01T16:20:03.193Z,99969.06
2023-11-01T16:22:31.098Z,99975.66
2023-11-01T16:24:58.525Z,99976.88
2023-11-01T16:27:26.926Z,99972.81
2023-11-01T16:29:54.676Z,99973.19
2023-11-01T16:32:22.272Z,99978.87
2023-11-01T16:34:51.056Z,99972.88
2023-11-01T16:37:18.276Z,99957.69
2023-11-01T16:39:45.380Z,99971.75
2023-11-01T16:42:14.057Z,99967.66
2023-11-01T16:44:42.162Z,99969.84
2023-11-01T16:47:10.032Z,99968.22
2023-11-01T16:49:43.249Z,99963.22
2023-11-01T16:52:11.872Z,99959.03
2023-11-01T16:54:39.302Z,99964.44
2023-11-01T16:57:07.022Z,99961.03
2023-11-01T16:59:34.841Z,99962.87
2023-11-01T17:02:04.108Z,99965.81
2023-11-01T17:04:34.258Z,99967.81
2023-11-01T17:07:02.425Z,99968.03
2023-11-01T17:09:30.467Z,99959.50
2023-11-01T17:11:59.475Z,99936.97
2023-11-01T17:14:27.924Z,99959.59
2023-11-01T17:16:56.370Z,99944.91
2023-11-01T17:19:24.285Z,99941.94
2023-11-01T17:21:51.735Z,99953.75
2023-11-01T17:24:27.122Z,99954.75
2023-11-01T17:26:58.830Z,99919.84
2023-11-01T17:29:34.772Z,99930.75
2023-11-01T17:32:02.641Z,99947.91
2023-11-01T17:34:31.825Z,99952.22
2023-11-01T17:37:04.686Z,99947.78
2023-11-01T17:39:39.442Z,99942.59
2023-11-01T17:42:07.392Z,99950.53
2023-11-01T17:44:36.554Z,99945.19
2023-11-01T17:47:23.117Z,99951.31
2023-11-01T17:49:53.014Z,99950.56
2023-11-01T17:52:28.557Z,99940.81
2023-11-01T17:54:56.104Z,99935.69
2023-11-01T17:57:23.524Z,99935.09
2023-11-01T17:59:50.810Z,99948.94
2023-11-01T18:02:28.026Z,99944.84
2023-11-01T18:04:56.326Z,99936.88
2023-11-01T18:07:25.035Z,99901.31
2023-11-01T18:09:52.745Z,99937.31
2023-11-01T18:12:20.312Z,99928.91
2023-11-01T18:14:47.613Z,99919.50
2023-11-01T18:17:15.523Z,99930.09
2023-11-01T18:19:45.095Z,99922.38
2023-11-01T18:22:43.741Z,99926.66
2023-11-01T18:25:29.919Z,99928.62
2023-11-01T18:28:03.686Z,99926.94
2023-11-01T18:30:30.600Z,99913.69
2023-11-01T18:32:58.776Z,99932.94
2023-11-01T18:35:31.342Z,99922.41
2023-11-01T18:37:58.430Z,99913.78
2023-11-01T18:40:25.932Z,99930.97
2023-11-01T18:42:58.188Z,99932.69
2023-11-01T18:45:25.499Z,99937.88
2023-11-01T18:47:53.474Z,99950.06
2023-11-01T18:50:20.457Z,99949.41
2023-11-01T18:52:48.424Z,99949.84
2023-11-01T18:55:33.879Z,99949.31
2023-11-01T18:58:00.987Z,99949.59
2023-11-01T19:00:28.802Z,99940.97
2023-11-01T19:03:04.491Z,99941.16
2023-11-01T19:05:33.738Z,99949.34
2023-11-01T19:08:01.526Z,99939.03
2023-11-01T19:10:33.444Z,99940.72
2023-11-01T19:13:01.068Z,99938.88
2023-11-01T19:15:38.235Z,99912.00
2023-11-01T19:18:20.268Z,99941.72
2023-11-01T19:20:47.562Z,99936.53
2023-11-01T19:23:15.264Z,99946.25
2023-11-01T19:25:43.305Z,99935.03
2023-11-01T19:28:10.532Z,99936.00
2023-11-01T19:30:37.903Z,99938.88
2023-11-01T19:33:05.711Z,99931.84
2023-11-01T19:35:34.487Z,99936.47
2023-11-01T19:38:04.191Z,99895.56
2023-11-01T19:40:31.521Z,99929.53
2023-11-01T19:42:59.359Z,99921.12
2023-11-01T19:45:26.764Z,99909.87
2023-11-01T19:47:54.089Z,99931.63
2023-11-01T19:50:25.725Z,99901.94
2023-11-01T19:52:53.850Z,99930.00
2023-11-01T19:55:20.999Z,99931.75
2023-11-01T19:57:48.760Z,99929.16
2023-11-01T20:00:16.613Z,99912.72
2023-11-01T20:02:43.911Z,99894.50
2023-11-01T20:05:11.328Z,99929.19
2023-11-01T20:07:39.203Z,99920.31
2023-11-01T20:10:10.751Z,99920.31
2023-11-01T20:12:39.831Z,99922.28
2023-11-01T20:15:10.133Z,99914.34
2023-11-01T20:17:38.142Z,99895.16
2023-11-01T20:20:07.883Z,99914.44
2023-11-01T20:22:40.029Z,99910.19
2023-11-01T20:25:08.289Z,99909.41
2023-11-01T20:27:36.948Z,99909.50
2023-11-01T20:30:05.777Z,99906.03
2023-11-01T20:32:33.008Z,99899.75
2023-11-01T20:35:01.203Z,99907.81
2023-11-01T20:37:28.295Z,99899.97
2023-11-01T20:39:55.278Z,99895.63
2023-11-01T20:42:23.424Z,99884.47
2023-11-01T20:44:50.698Z,99902.87
2023-11-01T20:47:19.137Z,99896.63
2023-11-01T20:49:47.942Z,99894.03
2023-11-01T20:52:15.381Z,99894.94
2023-11-01T20:54:55.114Z,99888.88
2023-11-01T20:57:24.283Z,99893.09
2023-11-01T20:59:51.502Z,99882.62
2023-11-01T21:02:18.733Z,99880.19
2023-11-01T21:04:45.670Z,99883.69
2023-11-01T21:07:15.583Z,99880.03
2023-11-01T21:09:45.023Z,99879.31
2023-11-01T21:12:12.848Z,99881.81
2023-11-01T21:14:40.751Z,99856.50
2023-11-01T21:17:08.176Z,99875.84
2023-11-01T21:19:35.477Z,99857.47
2023-11-01T21:22:02.856Z,99868.78
2023-11-01T21:24:30.029Z,99866.97
2023-11-01T21:26:58.034Z,99867.06
2023-11-01T21:29:25.272Z,99839.50
2023-11-01T21:31:52.455Z,99851.69
2023-11-01T21:34:19.916Z,99840.59
2023-11-01T21:36:47.342Z,99853.56
2023-11-01T21:39:16.005Z,99857.22
2023-11-01T21:41:45.181Z,99864.91
2023-11-01T21:44:12.948Z,99865.78
2023-11-01T21:46:40.443Z,99858.81
2023-11-01T21:49:17.315Z,99856.25
2023-11-01T21:51:44.745Z,99860.88
2023-11-01T21:54:23.771Z,99852.94
2023-11-01T21:56:51.977Z,99852.06
2023-11-01T21:59:21.354Z,99855.53
2023-11-01T22:01:48.768Z,99837.56
2023-11-01T22:04:22.550Z,99855.87
2023-11-01T22:06:52.000Z,99848.84
2023-11-01T22:09:19.919Z,99850.03
2023-11-01T22:11:52.276Z,99845.69
2023-11-01T22:14:30.554Z,99849.03
2023-11-01T22:16:59.643Z,99848.25
2023-11-01T22:19:38.487Z,99837.66
2023-11-01T22:22:21.539Z,99851.59
2023-11-01T22:24:48.502Z,99850.72
2023-11-01T22:27:17.757Z,99844.62
2023-11-01T22:29:50.520Z,99844.53
2023-11-01T22:32:21.901Z,99818.34
2023-11-01T22:34:50.793Z,99837.50
2023-11-01T22:37:29.641Z,99840.06
2023-11-01T22:39:57.518Z,99833.97
2023-11-01T22:42:32.438Z,99809.41
2023-11-01T22:45:03.932Z,99827.88
2023-11-01T22:47:31.376Z,99823.53
2023-11-01T22:49:59.063Z,99819.13
2023-11-01T22:52:26.125Z,99815.63
2023-11-01T22:54:53.012Z,99807.81
2023-11-01T22:57:20.240Z,99813.84
2023-11-01T22:59:47.578Z,99781.59
2023-11-01T23:02:16.563Z,99784.97
2023-11-01T23:04:44.109Z,99801.75
2023-11-01T23:07:11.819Z,99793.94
2023-11-01T23:09:39.137Z,99800.25
2023-11-01T23:12:06.909Z,99783.59
2023-11-01T23:14:33.911Z,99794.97
2023-11-01T23:17:01.404Z,99794.97
2023-11-01T23:19:28.677Z,99790.56
2023-11-01T23:21:55.619Z,99784.38
2023-11-01T23:24:24.305Z,99791.50
2023-11-01T23:26:56.699Z,99790.72
2023-11-01T23:29:32.565Z,99790.78
2023-11-01T23:32:01.620Z,99785.53
2023-11-01T23:34:49.707Z,99775.84
2023-11-01T23:37:29.102Z,99770.47
2023-11-01T23:39:57.327Z,99775.72
2023-11-01T23:42:24.345Z,99769.53
2023-11-01T23:44:53.950Z,99762.47
2023-11-01T23:47:25.112Z,99761.66
2023-11-01T23:49:59.306Z,99766.81
2023-11-01T23:52:31.031Z,99765.03
2023-11-01T23:54:59.286Z,99762.44
2023-11-01T23:57:31.459Z,99749.37
2023-11-01T23:59:58.931Z,99762.34
